sensor_id;sensor_type;location;lat;lon;timestamp;P1;durP1;ratioP1;P2;durP2;ratioP2
21894;SDS011;11112;51.270;7.224;2022-12-08T00:01:44;28.45;;;20.42;;
21894;SDS011;11112;51.270;7.224;2022-12-08T00:04:11;26.42;;;20.65;;
21894;SDS011;11112;51.270;7.224;2022-12-08T00:06:40;28.85;;;20.30;;
21894;SDS011;11112;51.270;7.224;2022-12-08T00:09:29;27.65;;;21.02;;
21894;SDS011;11112;51.270;7.224;2022-12-08T00:12:00;27.52;;;20.42;;
21894;SDS011;11112;51.270;7.224;2022-12-08T00:14:30;27.63;;;20.20;;
21894;SDS011;11112;51.270;7.224;2022-12-08T00:17:00;30.38;;;20.15;;
21894;SDS011;11112;51.270;7.224;2022-12-08T00:19:29;29.20;;;19.77;;
21894;SDS011;11112;51.270;7.224;2022-12-08T00:21:57;27.70;;;18.88;;
21894;SDS011;11112;51.270;7.224;2022-12-08T00:24:30;30.33;;;20.40;;
21894;SDS011;11112;51.270;7.224;2022-12-08T00:27:00;28.73;;;20.17;;
21894;SDS011;11112;51.270;7.224;2022-12-08T00:29:28;28.08;;;19.27;;
21894;SDS011;11112;51.270;7.224;2022-12-08T00:31:55;28.55;;;20.23;;
21894;SDS011;11112;51.270;7.224;2022-12-08T00:34:23;29.85;;;19.50;;
21894;SDS011;11112;51.270;7.224;2022-12-08T00:36:50;26.75;;;18.48;;
21894;SDS011;11112;51.270;7.224;2022-12-08T00:39:20;27.00;;;19.23;;
21894;SDS011;11112;51.270;7.224;2022-12-08T00:41:49;26.38;;;19.10;;
21894;SDS011;11112;51.270;7.224;2022-12-08T00:44:34;26.35;;;18.85;;
21894;SDS011;11112;51.270;7.224;2022-12-08T00:47:01;26.60;;;18.40;;
21894;SDS011;11112;51.270;7.224;2022-12-08T00:49:28;23.30;;;17.40;;
21894;SDS011;11112;51.270;7.224;2022-12-08T00:52:05;25.15;;;17.35;;
21894;SDS011;11112;51.270;7.224;2022-12-08T00:54:33;25.23;;;17.40;;
21894;SDS011;11112;51.270;7.224;2022-12-08T00:57:02;25.45;;;17.60;;
21894;SDS011;11112;51.270;7.224;2022-12-08T00:59:29;23.10;;;16.83;;
21894;SDS011;11112;51.270;7.224;2022-12-08T01:01:57;25.00;;;17.73;;
21894;SDS011;11112;51.270;7.224;2022-12-08T01:04:25;24.08;;;17.02;;
21894;SDS011;11112;51.270;7.224;2022-12-08T01:06:52;25.27;;;16.88;;
21894;SDS011;11112;51.270;7.224;2022-12-08T01:09:20;26.15;;;16.90;;
21894;SDS011;11112;51.270;7.224;2022-12-08T01:11:48;24.08;;;17.08;;
21894;SDS011;11112;51.270;7.224;2022-12-08T01:14:18;23.00;;;16.00;;
21894;SDS011;11112;51.270;7.224;2022-12-08T01:16:46;21.80;;;16.15;;
21894;SDS011;11112;51.270;7.224;2022-12-08T01:19:14;24.63;;;17.20;;
21894;SDS011;11112;51.270;7.224;2022-12-08T01:21:42;20.85;;;15.88;;
21894;SDS011;11112;51.270;7.224;2022-12-08T01:24:12;23.90;;;16.45;;
21894;SDS011;11112;51.270;7.224;2022-12-08T01:26:41;25.85;;;16.63;;
21894;SDS011;11112;51.270;7.224;2022-12-08T01:29:10;25.80;;;16.90;;
21894;SDS011;11112;51.270;7.224;2022-12-08T01:31:40;24.17;;;16.85;;
21894;SDS011;11112;51.270;7.224;2022-12-08T01:34:08;25.75;;;17.27;;
21894;SDS011;11112;51.270;7.224;2022-12-08T01:36:37;24.67;;;17.20;;
21894;SDS011;11112;51.270;7.224;2022-12-08T01:39:05;22.02;;;16.30;;
21894;SDS011;11112;51.270;7.224;2022-12-08T01:41:37;22.90;;;15.88;;
21894;SDS011;11112;51.270;7.224;2022-12-08T01:47:23;20.63;;;15.05;;
21894;SDS011;11112;51.270;7.224;2022-12-08T01:49:56;22.15;;;15.00;;
21894;SDS011;11112;51.270;7.224;2022-12-08T01:52:29;20.38;;;14.18;;
21894;SDS011;11112;51.270;7.224;2022-12-08T01:55:03;18.70;;;12.05;;
21894;SDS011;11112;51.270;7.224;2022-12-08T01:57:35;17.95;;;12.73;;
21894;SDS011;11112;51.270;7.224;2022-12-08T02:00:08;17.55;;;12.00;;
21894;SDS011;11112;51.270;7.224;2022-12-08T02:02:43;16.30;;;11.88;;
21894;SDS011;11112;51.270;7.224;2022-12-08T02:05:18;18.65;;;12.82;;
21894;SDS011;11112;51.270;7.224;2022-12-08T02:07:51;16.65;;;12.05;;
21894;SDS011;11112;51.270;7.224;2022-12-08T02:10:21;20.38;;;13.48;;
21894;SDS011;11112;51.270;7.224;2022-12-08T02:12:50;19.83;;;12.27;;
21894;SDS011;11112;51.270;7.224;2022-12-08T02:15:19;18.52;;;12.27;;
21894;SDS011;11112;51.270;7.224;2022-12-08T02:18:04;19.50;;;14.77;;
21894;SDS011;11112;51.270;7.224;2022-12-08T02:20:51;21.38;;;14.93;;
21894;SDS011;11112;51.270;7.224;2022-12-08T02:23:30;21.50;;;15.77;;
21894;SDS011;11112;51.270;7.224;2022-12-08T02:26:16;22.25;;;16.27;;
21894;SDS011;11112;51.270;7.224;2022-12-08T02:29:17;23.23;;;16.48;;
21894;SDS011;11112;51.270;7.224;2022-12-08T02:32:38;21.85;;;15.55;;
21894;SDS011;11112;51.270;7.224;2022-12-08T02:35:30;24.40;;;17.10;;
21894;SDS011;11112;51.270;7.224;2022-12-08T02:38:06;25.05;;;17.00;;
21894;SDS011;11112;51.270;7.224;2022-12-08T02:40:42;24.58;;;17.90;;
21894;SDS011;11112;51.270;7.224;2022-12-08T02:43:19;27.30;;;17.55;;
21894;SDS011;11112;51.270;7.224;2022-12-08T02:45:54;27.25;;;18.55;;
21894;SDS011;11112;51.270;7.224;2022-12-08T02:48:26;27.42;;;18.80;;
21894;SDS011;11112;51.270;7.224;2022-12-08T02:50:56;29.33;;;18.92;;
21894;SDS011;11112;51.270;7.224;2022-12-08T02:53:37;28.60;;;18.05;;
21894;SDS011;11112;51.270;7.224;2022-12-08T02:56:12;23.77;;;18.23;;
21894;SDS011;11112;51.270;7.224;2022-12-08T02:59:06;27.42;;;19.13;;
21894;SDS011;11112;51.270;7.224;2022-12-08T03:04:58;25.95;;;18.45;;
21894;SDS011;11112;51.270;7.224;2022-12-08T03:07:37;25.35;;;18.67;;
21894;SDS011;11112;51.270;7.224;2022-12-08T03:10:15;26.25;;;18.52;;
21894;SDS011;11112;51.270;7.224;2022-12-08T03:12:49;28.00;;;18.77;;
21894;SDS011;11112;51.270;7.224;2022-12-08T03:15:21;26.30;;;19.23;;
21894;SDS011;11112;51.270;7.224;2022-12-08T03:17:50;27.58;;;19.20;;
21894;SDS011;11112;51.270;7.224;2022-12-08T03:20:25;27.40;;;19.25;;
21894;SDS011;11112;51.270;7.224;2022-12-08T03:22:57;31.70;;;19.77;;
21894;SDS011;11112;51.270;7.224;2022-12-08T03:25:29;26.08;;;18.48;;
21894;SDS011;11112;51.270;7.224;2022-12-08T03:28:01;29.23;;;19.50;;
21894;SDS011;11112;51.270;7.224;2022-12-08T03:30:29;29.50;;;19.80;;
21894;SDS011;11112;51.270;7.224;2022-12-08T03:35:33;20.27;;;15.10;;
21894;SDS011;11112;51.270;7.224;2022-12-08T03:38:06;20.50;;;14.98;;
21894;SDS011;11112;51.270;7.224;2022-12-08T03:40:37;22.20;;;15.45;;
21894;SDS011;11112;51.270;7.224;2022-12-08T03:43:05;20.55;;;14.38;;
21894;SDS011;11112;51.270;7.224;2022-12-08T03:45:33;22.30;;;14.85;;
21894;SDS011;11112;51.270;7.224;2022-12-08T03:48:01;19.48;;;14.40;;
21894;SDS011;11112;51.270;7.224;2022-12-08T03:50:29;17.23;;;13.00;;
21894;SDS011;11112;51.270;7.224;2022-12-08T03:52:56;20.15;;;14.60;;
21894;SDS011;11112;51.270;7.224;2022-12-08T03:55:24;19.95;;;14.25;;
21894;SDS011;11112;51.270;7.224;2022-12-08T03:57:52;20.25;;;14.50;;
21894;SDS011;11112;51.270;7.224;2022-12-08T04:00:20;20.67;;;15.10;;
21894;SDS011;11112;51.270;7.224;2022-12-08T04:02:48;21.98;;;15.90;;
21894;SDS011;11112;51.270;7.224;2022-12-08T04:05:15;23.55;;;16.52;;
21894;SDS011;11112;51.270;7.224;2022-12-08T04:07:42;25.15;;;17.08;;
21894;SDS011;11112;51.270;7.224;2022-12-08T04:10:09;22.75;;;17.02;;
21894;SDS011;11112;51.270;7.224;2022-12-08T04:12:39;23.73;;;16.00;;
21894;SDS011;11112;51.270;7.224;2022-12-08T04:15:06;22.65;;;15.98;;
21894;SDS011;11112;51.270;7.224;2022-12-08T04:17:35;23.25;;;16.40;;
21894;SDS011;11112;51.270;7.224;2022-12-08T04:20:03;24.88;;;17.00;;
21894;SDS011;11112;51.270;7.224;2022-12-08T04:22:32;21.40;;;15.75;;
21894;SDS011;11112;51.270;7.224;2022-12-08T04:25:00;21.65;;;15.90;;
21894;SDS011;11112;51.270;7.224;2022-12-08T04:27:27;20.25;;;14.88;;
21894;SDS011;11112;51.270;7.224;2022-12-08T04:29:56;19.05;;;14.80;;
21894;SDS011;11112;51.270;7.224;2022-12-08T04:32:23;20.45;;;14.90;;
21894;SDS011;11112;51.270;7.224;2022-12-08T04:34:50;19.48;;;14.32;;
21894;SDS011;11112;51.270;7.224;2022-12-08T04:37:18;18.77;;;14.02;;
21894;SDS011;11112;51.270;7.224;2022-12-08T04:39:45;18.30;;;13.15;;
21894;SDS011;11112;51.270;7.224;2022-12-08T04:42:12;19.73;;;13.27;;
21894;SDS011;11112;51.270;7.224;2022-12-08T04:44:40;18.35;;;12.20;;
21894;SDS011;11112;51.270;7.224;2022-12-08T04:47:09;15.85;;;11.63;;
21894;SDS011;11112;51.270;7.224;2022-12-08T04:49:36;16.00;;;11.65;;
21894;SDS011;11112;51.270;7.224;2022-12-08T04:52:04;18.58;;;12.45;;
21894;SDS011;11112;51.270;7.224;2022-12-08T04:54:31;15.20;;;11.90;;
21894;SDS011;11112;51.270;7.224;2022-12-08T04:56:58;15.43;;;11.43;;
21894;SDS011;11112;51.270;7.224;2022-12-08T04:59:25;14.82;;;11.48;;
21894;SDS011;11112;51.270;7.224;2022-12-08T05:01:53;16.52;;;11.07;;
21894;SDS011;11112;51.270;7.224;2022-12-08T05:04:22;14.80;;;10.27;;
21894;SDS011;11112;51.270;7.224;2022-12-08T05:06:49;13.48;;;10.35;;
21894;SDS011;11112;51.270;7.224;2022-12-08T05:09:16;14.02;;;10.38;;
21894;SDS011;11112;51.270;7.224;2022-12-08T05:11:44;13.52;;;10.25;;
21894;SDS011;11112;51.270;7.224;2022-12-08T05:14:11;13.70;;;10.77;;
21894;SDS011;11112;51.270;7.224;2022-12-08T05:16:42;13.43;;;10.15;;
21894;SDS011;11112;51.270;7.224;2022-12-08T05:19:10;13.45;;;10.20;;
21894;SDS011;11112;51.270;7.224;2022-12-08T05:21:39;13.27;;;9.85;;
21894;SDS011;11112;51.270;7.224;2022-12-08T05:24:07;12.60;;;9.30;;
21894;SDS011;11112;51.270;7.224;2022-12-08T05:26:34;12.18;;;9.00;;
21894;SDS011;11112;51.270;7.224;2022-12-08T05:29:01;11.55;;;9.40;;
21894;SDS011;11112;51.270;7.224;2022-12-08T05:31:32;11.77;;;9.10;;
21894;SDS011;11112;51.270;7.224;2022-12-08T05:33:59;12.05;;;9.02;;
21894;SDS011;11112;51.270;7.224;2022-12-08T05:36:26;11.50;;;9.07;;
21894;SDS011;11112;51.270;7.224;2022-12-08T05:38:56;10.45;;;8.38;;
21894;SDS011;11112;51.270;7.224;2022-12-08T05:41:24;9.18;;;7.65;;
21894;SDS011;11112;51.270;7.224;2022-12-08T05:43:51;10.10;;;8.30;;
21894;SDS011;11112;51.270;7.224;2022-12-08T05:46:19;10.02;;;8.20;;
21894;SDS011;11112;51.270;7.224;2022-12-08T05:48:46;9.30;;;7.82;;
21894;SDS011;11112;51.270;7.224;2022-12-08T05:51:15;11.48;;;7.70;;
21894;SDS011;11112;51.270;7.224;2022-12-08T05:53:45;8.98;;;7.25;;
21894;SDS011;11112;51.270;7.224;2022-12-08T05:56:15;7.45;;;6.35;;
21894;SDS011;11112;51.270;7.224;2022-12-08T05:58:43;7.53;;;6.65;;
21894;SDS011;11112;51.270;7.224;2022-12-08T06:01:16;8.73;;;7.30;;
21894;SDS011;11112;51.270;7.224;2022-12-08T06:03:47;9.95;;;8.43;;
21894;SDS011;11112;51.270;7.224;2022-12-08T06:06:14;12.90;;;9.10;;
21894;SDS011;11112;51.270;7.224;2022-12-08T06:08:42;13.48;;;10.07;;
21894;SDS011;11112;51.270;7.224;2022-12-08T06:11:17;14.68;;;11.38;;
21894;SDS011;11112;51.270;7.224;2022-12-08T06:13:48;16.13;;;11.38;;
21894;SDS011;11112;51.270;7.224;2022-12-08T06:16:16;15.60;;;12.68;;
21894;SDS011;11112;51.270;7.224;2022-12-08T06:18:44;20.23;;;13.27;;
21894;SDS011;11112;51.270;7.224;2022-12-08T06:21:12;18.48;;;14.00;;
21894;SDS011;11112;51.270;7.224;2022-12-08T06:23:43;22.08;;;14.25;;
21894;SDS011;11112;51.270;7.224;2022-12-08T06:26:15;20.30;;;13.95;;
21894;SDS011;11112;51.270;7.224;2022-12-08T06:28:44;21.30;;;15.02;;
21894;SDS011;11112;51.270;7.224;2022-12-08T06:31:14;18.30;;;14.85;;
21894;SDS011;11112;51.270;7.224;2022-12-08T06:33:45;20.45;;;15.13;;
21894;SDS011;11112;51.270;7.224;2022-12-08T06:36:16;20.02;;;14.75;;
21894;SDS011;11112;51.270;7.224;2022-12-08T06:38:47;20.58;;;14.73;;
21894;SDS011;11112;51.270;7.224;2022-12-08T06:41:14;23.23;;;15.00;;
21894;SDS011;11112;51.270;7.224;2022-12-08T06:43:44;19.92;;;14.40;;
21894;SDS011;11112;51.270;7.224;2022-12-08T06:46:12;20.48;;;15.77;;
21894;SDS011;11112;51.270;7.224;2022-12-08T06:48:42;22.20;;;15.23;;
21894;SDS011;11112;51.270;7.224;2022-12-08T06:51:10;21.40;;;14.75;;
21894;SDS011;11112;51.270;7.224;2022-12-08T06:53:41;20.33;;;14.07;;
21894;SDS011;11112;51.270;7.224;2022-12-08T06:56:09;17.38;;;13.68;;
21894;SDS011;11112;51.270;7.224;2022-12-08T06:58:45;19.30;;;13.70;;
21894;SDS011;11112;51.270;7.224;2022-12-08T07:01:13;19.40;;;13.75;;
21894;SDS011;11112;51.270;7.224;2022-12-08T07:03:42;17.63;;;13.43;;
21894;SDS011;11112;51.270;7.224;2022-12-08T07:06:13;17.77;;;12.93;;
21894;SDS011;11112;51.270;7.224;2022-12-08T07:08:43;16.95;;;13.10;;
21894;SDS011;11112;51.270;7.224;2022-12-08T07:11:10;17.60;;;14.02;;
21894;SDS011;11112;51.270;7.224;2022-12-08T07:13:39;17.13;;;13.40;;
21894;SDS011;11112;51.270;7.224;2022-12-08T07:16:08;18.02;;;13.05;;
21894;SDS011;11112;51.270;7.224;2022-12-08T07:18:37;17.83;;;12.88;;
21894;SDS011;11112;51.270;7.224;2022-12-08T07:21:07;17.58;;;13.63;;
21894;SDS011;11112;51.270;7.224;2022-12-08T07:23:36;18.63;;;13.80;;
21894;SDS011;11112;51.270;7.224;2022-12-08T07:26:06;19.85;;;13.80;;
21894;SDS011;11112;51.270;7.224;2022-12-08T07:28:37;17.50;;;13.18;;
21894;SDS011;11112;51.270;7.224;2022-12-08T07:31:14;16.33;;;12.93;;
21894;SDS011;11112;51.270;7.224;2022-12-08T07:33:44;17.63;;;13.30;;
21894;SDS011;11112;51.270;7.224;2022-12-08T07:36:12;18.20;;;12.77;;
21894;SDS011;11112;51.270;7.224;2022-12-08T07:38:40;16.58;;;12.77;;
21894;SDS011;11112;51.270;7.224;2022-12-08T07:41:10;17.75;;;12.77;;
21894;SDS011;11112;51.270;7.224;2022-12-08T07:43:38;16.42;;;13.30;;
21894;SDS011;11112;51.270;7.224;2022-12-08T07:46:09;16.17;;;12.77;;
21894;SDS011;11112;51.270;7.224;2022-12-08T07:48:37;15.10;;;12.18;;
21894;SDS011;11112;51.270;7.224;2022-12-08T07:51:05;17.90;;;11.73;;
21894;SDS011;11112;51.270;7.224;2022-12-08T07:53:33;15.65;;;11.75;;
21894;SDS011;11112;51.270;7.224;2022-12-08T07:56:02;15.20;;;12.35;;
21894;SDS011;11112;51.270;7.224;2022-12-08T07:58:31;18.85;;;13.30;;
21894;SDS011;11112;51.270;7.224;2022-12-08T08:01:00;15.65;;;12.23;;
21894;SDS011;11112;51.270;7.224;2022-12-08T08:03:28;18.30;;;12.32;;
21894;SDS011;11112;51.270;7.224;2022-12-08T08:06:01;17.48;;;12.20;;
21894;SDS011;11112;51.270;7.224;2022-12-08T08:08:30;15.02;;;12.07;;
21894;SDS011;11112;51.270;7.224;2022-12-08T08:10:58;16.00;;;12.50;;
21894;SDS011;11112;51.270;7.224;2022-12-08T08:13:25;15.32;;;11.68;;
21894;SDS011;11112;51.270;7.224;2022-12-08T08:15:52;14.82;;;11.95;;
21894;SDS011;11112;51.270;7.224;2022-12-08T08:18:19;14.65;;;11.63;;
21894;SDS011;11112;51.270;7.224;2022-12-08T08:20:50;15.48;;;11.98;;
21894;SDS011;11112;51.270;7.224;2022-12-08T08:23:17;14.82;;;11.50;;
21894;SDS011;11112;51.270;7.224;2022-12-08T08:25:47;14.18;;;11.30;;
21894;SDS011;11112;51.270;7.224;2022-12-08T08:28:16;13.98;;;10.80;;
21894;SDS011;11112;51.270;7.224;2022-12-08T08:30:44;15.13;;;10.95;;
21894;SDS011;11112;51.270;7.224;2022-12-08T08:33:12;11.95;;;9.50;;
21894;SDS011;11112;51.270;7.224;2022-12-08T08:35:40;12.60;;;9.93;;
21894;SDS011;11112;51.270;7.224;2022-12-08T08:38:09;14.30;;;10.80;;
21894;SDS011;11112;51.270;7.224;2022-12-08T08:40:36;13.90;;;10.32;;
21894;SDS011;11112;51.270;7.224;2022-12-08T08:43:05;13.15;;;10.20;;
21894;SDS011;11112;51.270;7.224;2022-12-08T08:45:33;12.73;;;10.45;;
21894;SDS011;11112;51.270;7.224;2022-12-08T08:48:01;12.98;;;10.52;;
21894;SDS011;11112;51.270;7.224;2022-12-08T08:50:28;15.35;;;11.80;;
21894;SDS011;11112;51.270;7.224;2022-12-08T08:52:56;13.38;;;11.10;;
21894;SDS011;11112;51.270;7.224;2022-12-08T08:55:25;13.52;;;11.00;;
21894;SDS011;11112;51.270;7.224;2022-12-08T08:57:52;14.25;;;10.50;;
21894;SDS011;11112;51.270;7.224;2022-12-08T09:00:20;13.88;;;10.43;;
21894;SDS011;11112;51.270;7.224;2022-12-08T09:02:48;13.10;;;10.27;;
21894;SDS011;11112;51.270;7.224;2022-12-08T09:05:16;11.90;;;9.05;;
21894;SDS011;11112;51.270;7.224;2022-12-08T09:07:44;13.13;;;10.18;;
21894;SDS011;11112;51.270;7.224;2022-12-08T09:10:12;11.65;;;9.65;;
21894;SDS011;11112;51.270;7.224;2022-12-08T09:12:41;11.77;;;8.98;;
21894;SDS011;11112;51.270;7.224;2022-12-08T09:15:09;11.50;;;9.13;;
21894;SDS011;11112;51.270;7.224;2022-12-08T09:17:38;13.70;;;9.38;;
21894;SDS011;11112;51.270;7.224;2022-12-08T09:20:07;12.52;;;9.45;;
21894;SDS011;11112;51.270;7.224;2022-12-08T09:22:35;11.77;;;9.18;;
21894;SDS011;11112;51.270;7.224;2022-12-08T09:25:04;11.60;;;8.82;;
21894;SDS011;11112;51.270;7.224;2022-12-08T09:27:31;10.10;;;7.90;;
21894;SDS011;11112;51.270;7.224;2022-12-08T09:30:06;10.98;;;8.50;;
21894;SDS011;11112;51.270;7.224;2022-12-08T09:32:37;9.27;;;7.18;;
21894;SDS011;11112;51.270;7.224;2022-12-08T09:35:04;9.48;;;7.30;;
21894;SDS011;11112;51.270;7.224;2022-12-08T09:37:32;8.98;;;7.05;;
21894;SDS011;11112;51.270;7.224;2022-12-08T09:40:00;8.43;;;6.90;;
21894;SDS011;11112;51.270;7.224;2022-12-08T09:42:32;8.40;;;6.95;;
21894;SDS011;11112;51.270;7.224;2022-12-08T09:45:10;10.60;;;7.63;;
21894;SDS011;11112;51.270;7.224;2022-12-08T09:47:41;10.10;;;8.45;;
21894;SDS011;11112;51.270;7.224;2022-12-08T09:50:13;12.05;;;8.65;;
21894;SDS011;11112;51.270;7.224;2022-12-08T09:52:56;10.30;;;8.02;;
21894;SDS011;11112;51.270;7.224;2022-12-08T09:55:33;10.02;;;7.63;;
21894;SDS011;11112;51.270;7.224;2022-12-08T09:58:09;10.68;;;8.30;;
21894;SDS011;11112;51.270;7.224;2022-12-08T10:00:47;11.65;;;8.63;;
21894;SDS011;11112;51.270;7.224;2022-12-08T10:03:15;11.75;;;9.10;;
21894;SDS011;11112;51.270;7.224;2022-12-08T10:05:45;13.05;;;9.65;;
21894;SDS011;11112;51.270;7.224;2022-12-08T10:08:24;12.60;;;9.68;;
21894;SDS011;11112;51.270;7.224;2022-12-08T10:10:57;12.95;;;9.77;;
21894;SDS011;11112;51.270;7.224;2022-12-08T10:13:32;14.98;;;10.57;;
21894;SDS011;11112;51.270;7.224;2022-12-08T10:16:11;13.23;;;10.07;;
21894;SDS011;11112;51.270;7.224;2022-12-08T10:18:47;16.52;;;11.88;;
21894;SDS011;11112;51.270;7.224;2022-12-08T10:21:24;17.98;;;12.43;;
21894;SDS011;11112;51.270;7.224;2022-12-08T10:23:57;18.15;;;12.27;;
21894;SDS011;11112;51.270;7.224;2022-12-08T10:26:31;19.17;;;12.32;;
21894;SDS011;11112;51.270;7.224;2022-12-08T10:29:00;19.77;;;13.60;;
21894;SDS011;11112;51.270;7.224;2022-12-08T10:31:29;18.58;;;12.98;;
21894;SDS011;11112;51.270;7.224;2022-12-08T10:33:58;18.13;;;12.02;;
21894;SDS011;11112;51.270;7.224;2022-12-08T10:39:30;16.02;;;11.15;;
21894;SDS011;11112;51.270;7.224;2022-12-08T10:42:03;17.13;;;11.43;;
21894;SDS011;11112;51.270;7.224;2022-12-08T10:44:37;17.35;;;11.30;;
21894;SDS011;11112;51.270;7.224;2022-12-08T10:47:23;17.13;;;11.77;;
21894;SDS011;11112;51.270;7.224;2022-12-08T10:50:07;18.05;;;11.85;;
21894;SDS011;11112;51.270;7.224;2022-12-08T10:52:44;16.25;;;11.48;;
21894;SDS011;11112;51.270;7.224;2022-12-08T10:55:20;17.20;;;11.27;;
21894;SDS011;11112;51.270;7.224;2022-12-08T10:57:49;17.30;;;11.57;;
21894;SDS011;11112;51.270;7.224;2022-12-08T11:00:22;20.02;;;11.52;;
21894;SDS011;11112;51.270;7.224;2022-12-08T11:02:55;18.13;;;12.50;;
21894;SDS011;11112;51.270;7.224;2022-12-08T11:05:26;17.88;;;11.40;;
21894;SDS011;11112;51.270;7.224;2022-12-08T11:07:58;16.80;;;10.95;;
21894;SDS011;11112;51.270;7.224;2022-12-08T11:10:29;15.18;;;11.48;;
21894;SDS011;11112;51.270;7.224;2022-12-08T11:13:03;17.25;;;11.07;;
21894;SDS011;11112;51.270;7.224;2022-12-08T11:15:33;17.52;;;12.20;;
21894;SDS011;11112;51.270;7.224;2022-12-08T11:18:18;20.67;;;13.07;;
21894;SDS011;11112;51.270;7.224;2022-12-08T11:20:57;18.50;;;12.00;;
21894;SDS011;11112;51.270;7.224;2022-12-08T11:23:32;21.40;;;13.45;;
21894;SDS011;11112;51.270;7.224;2022-12-08T11:26:03;17.85;;;12.45;;
21894;SDS011;11112;51.270;7.224;2022-12-08T11:28:38;18.45;;;12.23;;
21894;SDS011;11112;51.270;7.224;2022-12-08T11:31:19;15.90;;;10.65;;
21894;SDS011;11112;51.270;7.224;2022-12-08T11:33:55;17.88;;;11.68;;
21894;SDS011;11112;51.270;7.224;2022-12-08T11:36:23;16.70;;;10.55;;
21894;SDS011;11112;51.270;7.224;2022-12-08T11:38:55;16.95;;;11.32;;
21894;SDS011;11112;51.270;7.224;2022-12-08T11:41:26;17.08;;;11.43;;
21894;SDS011;11112;51.270;7.224;2022-12-08T11:43:58;21.17;;;11.55;;
21894;SDS011;11112;51.270;7.224;2022-12-08T11:46:35;18.92;;;10.95;;
21894;SDS011;11112;51.270;7.224;2022-12-08T11:49:11;17.10;;;10.90;;
21894;SDS011;11112;51.270;7.224;2022-12-08T11:51:45;13.15;;;9.13;;
21894;SDS011;11112;51.270;7.224;2022-12-08T11:54:20;20.33;;;12.65;;
21894;SDS011;11112;51.270;7.224;2022-12-08T11:56:52;19.50;;;11.07;;
21894;SDS011;11112;51.270;7.224;2022-12-08T11:59:24;17.65;;;11.35;;
21894;SDS011;11112;51.270;7.224;2022-12-08T12:01:55;15.27;;;11.20;;
21894;SDS011;11112;51.270;7.224;2022-12-08T12:04:28;17.05;;;10.57;;
21894;SDS011;11112;51.270;7.224;2022-12-08T12:07:13;17.85;;;11.00;;
21894;SDS011;11112;51.270;7.224;2022-12-08T12:10:20;19.23;;;11.07;;
21894;SDS011;11112;51.270;7.224;2022-12-08T12:13:16;18.75;;;11.27;;
21894;SDS011;11112;51.270;7.224;2022-12-08T12:16:14;15.50;;;10.45;;
21894;SDS011;11112;51.270;7.224;2022-12-08T12:19:03;22.45;;;11.77;;
21894;SDS011;11112;51.270;7.224;2022-12-08T12:21:42;19.20;;;11.68;;
21894;SDS011;11112;51.270;7.224;2022-12-08T12:24:15;23.30;;;11.68;;
21894;SDS011;11112;51.270;7.224;2022-12-08T12:26:50;20.73;;;11.77;;
21894;SDS011;11112;51.270;7.224;2022-12-08T12:29:23;24.77;;;12.68;;
21894;SDS011;11112;51.270;7.224;2022-12-08T12:31:53;20.58;;;11.80;;
21894;SDS011;11112;51.270;7.224;2022-12-08T12:34:24;18.98;;;11.90;;
21894;SDS011;11112;51.270;7.224;2022-12-08T12:36:57;19.08;;;11.57;;
21894;SDS011;11112;51.270;7.224;2022-12-08T12:39:32;17.23;;;10.27;;
21894;SDS011;11112;51.270;7.224;2022-12-08T12:45:11;19.45;;;9.98;;
21894;SDS011;11112;51.270;7.224;2022-12-08T12:50:46;17.75;;;10.18;;
21894;SDS011;11112;51.270;7.224;2022-12-08T12:59:21;18.88;;;9.57;;
21894;SDS011;11112;51.270;7.224;2022-12-08T13:02:15;16.95;;;9.60;;
21894;SDS011;11112;51.270;7.224;2022-12-08T13:04:58;16.52;;;8.80;;
21894;SDS011;11112;51.270;7.224;2022-12-08T13:07:33;17.48;;;8.95;;
21894;SDS011;11112;51.270;7.224;2022-12-08T13:10:14;18.20;;;9.20;;
21894;SDS011;11112;51.270;7.224;2022-12-08T13:15:59;18.73;;;9.32;;
21894;SDS011;11112;51.270;7.224;2022-12-08T13:19:21;18.00;;;9.30;;
21894;SDS011;11112;51.270;7.224;2022-12-08T13:26:07;18.52;;;10.00;;
21894;SDS011;11112;51.270;7.224;2022-12-08T13:29:16;13.90;;;8.65;;
21894;SDS011;11112;51.270;7.224;2022-12-08T13:31:47;21.02;;;9.90;;
21894;SDS011;11112;51.270;7.224;2022-12-08T13:34:19;19.98;;;9.82;;
21894;SDS011;11112;51.270;7.224;2022-12-08T13:39:48;22.00;;;10.98;;
21894;SDS011;11112;51.270;7.224;2022-12-08T13:42:22;21.80;;;11.40;;
21894;SDS011;11112;51.270;7.224;2022-12-08T13:45:03;22.60;;;11.85;;
21894;SDS011;11112;51.270;7.224;2022-12-08T13:47:44;18.63;;;10.13;;
21894;SDS011;11112;51.270;7.224;2022-12-08T13:50:19;21.80;;;10.63;;
21894;SDS011;11112;51.270;7.224;2022-12-08T13:52:55;18.73;;;10.30;;
21894;SDS011;11112;51.270;7.224;2022-12-08T13:55:27;19.80;;;10.00;;
21894;SDS011;11112;51.270;7.224;2022-12-08T13:58:07;17.60;;;9.57;;
21894;SDS011;11112;51.270;7.224;2022-12-08T14:00:52;15.85;;;9.95;;
21894;SDS011;11112;51.270;7.224;2022-12-08T14:03:27;20.73;;;11.05;;
21894;SDS011;11112;51.270;7.224;2022-12-08T14:05:54;21.13;;;10.60;;
21894;SDS011;11112;51.270;7.224;2022-12-08T14:08:28;19.70;;;10.35;;
21894;SDS011;11112;51.270;7.224;2022-12-08T14:11:00;17.60;;;9.85;;
21894;SDS011;11112;51.270;7.224;2022-12-08T14:13:33;18.10;;;10.05;;
21894;SDS011;11112;51.270;7.224;2022-12-08T14:16:01;22.17;;;10.82;;
21894;SDS011;11112;51.270;7.224;2022-12-08T14:18:29;20.80;;;10.38;;
21894;SDS011;11112;51.270;7.224;2022-12-08T14:20:58;23.33;;;10.80;;
21894;SDS011;11112;51.270;7.224;2022-12-08T14:23:33;16.58;;;10.00;;
21894;SDS011;11112;51.270;7.224;2022-12-08T14:26:02;20.33;;;10.93;;
21894;SDS011;11112;51.270;7.224;2022-12-08T14:28:31;21.33;;;11.13;;
21894;SDS011;11112;51.270;7.224;2022-12-08T14:31:00;18.83;;;11.27;;
21894;SDS011;11112;51.270;7.224;2022-12-08T14:33:30;21.48;;;11.38;;
21894;SDS011;11112;51.270;7.224;2022-12-08T14:35:58;20.73;;;11.27;;
21894;SDS011;11112;51.270;7.224;2022-12-08T14:38:27;18.77;;;11.60;;
21894;SDS011;11112;51.270;7.224;2022-12-08T14:41:00;19.70;;;11.23;;
21894;SDS011;11112;51.270;7.224;2022-12-08T14:43:30;18.23;;;10.82;;
21894;SDS011;11112;51.270;7.224;2022-12-08T14:46:03;19.77;;;10.48;;
21894;SDS011;11112;51.270;7.224;2022-12-08T14:48:45;19.73;;;10.70;;
21894;SDS011;11112;51.270;7.224;2022-12-08T14:51:14;19.50;;;10.75;;
21894;SDS011;11112;51.270;7.224;2022-12-08T14:53:50;20.65;;;10.88;;
21894;SDS011;11112;51.270;7.224;2022-12-08T14:56:24;20.30;;;11.23;;
21894;SDS011;11112;51.270;7.224;2022-12-08T14:59:04;17.10;;;10.50;;
21894;SDS011;11112;51.270;7.224;2022-12-08T15:01:43;17.73;;;10.50;;
21894;SDS011;11112;51.270;7.224;2022-12-08T15:04:14;16.40;;;10.73;;
21894;SDS011;11112;51.270;7.224;2022-12-08T15:06:45;17.58;;;9.95;;
21894;SDS011;11112;51.270;7.224;2022-12-08T15:09:36;19.60;;;10.70;;
21894;SDS011;11112;51.270;7.224;2022-12-08T15:12:56;18.77;;;9.90;;
21894;SDS011;11112;51.270;7.224;2022-12-08T15:22:46;18.35;;;10.93;;
21894;SDS011;11112;51.270;7.224;2022-12-08T15:28:29;18.33;;;11.60;;
21894;SDS011;11112;51.270;7.224;2022-12-08T15:31:18;23.40;;;11.38;;
21894;SDS011;11112;51.270;7.224;2022-12-08T15:33:45;19.40;;;11.25;;
21894;SDS011;11112;51.270;7.224;2022-12-08T15:36:15;32.40;;;17.58;;
21894;SDS011;11112;51.270;7.224;2022-12-08T15:38:42;25.83;;;15.02;;